sensor_id;sensor_type;location;lat;lon;timestamp;pressure;altitude;pressure_sealevel;temperature;humidity
24558;BME280;12726;49.148;8.582;2023-02-02T00:00:47;101108.81;;;6.28;86.40
24558;BME280;12726;49.148;8.582;2023-02-02T00:03:32;101118.66;;;6.27;86.24
24558;BME280;12726;49.148;8.582;2023-02-02T00:06:19;101122.34;;;6.26;86.56
24558;BME280;12726;49.148;8.582;2023-02-02T00:09:06;101126.38;;;6.31;86.29
24558;BME280;12726;49.148;8.582;2023-02-02T00:11:52;101115.00;;;6.28;86.04
24558;BME280;12726;49.148;8.582;2023-02-02T00:14:37;101123.53;;;6.32;86.26
24558;BME280;12726;49.148;8.582;2023-02-02T00:17:22;101115.84;;;6.29;87.10
24558;BME280;12726;49.148;8.582;2023-02-02T00:20:09;101128.69;;;6.25;87.34
24558;BME280;12726;49.148;8.582;2023-02-02T00:22:55;101127.88;;;6.25;87.76
24558;BME280;12726;49.148;8.582;2023-02-02T00:25:41;101127.03;;;6.24;87.92
24558;BME280;12726;49.148;8.582;2023-02-02T00:28:26;101123.34;;;6.25;88.26
24558;BME280;12726;49.148;8.582;2023-02-02T00:31:12;101120.50;;;6.19;88.67
24558;BME280;12726;49.148;8.582;2023-02-02T00:33:57;101121.53;;;6.18;88.83
24558;BME280;12726;49.148;8.582;2023-02-02T00:36:43;101112.00;;;6.15;88.96
24558;BME280;12726;49.148;8.582;2023-02-02T00:39:29;101112.16;;;6.14;89.31
24558;BME280;12726;49.148;8.582;2023-02-02T00:42:16;101111.31;;;6.13;89.29
24558;BME280;12726;49.148;8.582;2023-02-02T00:45:02;101125.03;;;6.10;89.67
24558;BME280;12726;49.148;8.582;2023-02-02T00:48:02;101108.47;;;6.07;90.16
24558;BME280;12726;49.148;8.582;2023-02-02T00:50:48;101105.63;;;6.08;90.22
24558;BME280;12726;49.148;8.582;2023-02-02T00:53:33;101111.50;;;6.04;90.62
24558;BME280;12726;49.148;8.582;2023-02-02T00:56:18;101107.97;;;6.03;90.81
24558;BME280;12726;49.148;8.582;2023-02-02T00:59:05;101105.13;;;6.05;91.02
24558;BME280;12726;49.148;8.582;2023-02-02T01:01:53;101109.28;;;5.99;91.34
24558;BME280;12726;49.148;8.582;2023-02-02T01:04:38;101101.47;;;5.89;91.97
24558;BME280;12726;49.148;8.582;2023-02-02T01:07:24;101108.06;;;5.85;92.75
24558;BME280;12726;49.148;8.582;2023-02-02T01:10:16;101117.78;;;5.86;92.52
24558;BME280;12726;49.148;8.582;2023-02-02T01:13:01;101116.25;;;5.84;93.08
24558;BME280;12726;49.148;8.582;2023-02-02T01:15:48;101129.59;;;5.76;93.33
24558;BME280;12726;49.148;8.582;2023-02-02T01:18:33;101118.09;;;5.75;93.58
24558;BME280;12726;49.148;8.582;2023-02-02T01:21:19;101122.91;;;5.72;94.01
24558;BME280;12726;49.148;8.582;2023-02-02T01:24:05;101129.75;;;5.66;94.12
24558;BME280;12726;49.148;8.582;2023-02-02T01:26:50;101120.41;;;5.70;94.23
24558;BME280;12726;49.148;8.582;2023-02-02T01:29:37;101121.25;;;5.71;93.93
24558;BME280;12726;49.148;8.582;2023-02-02T01:32:24;101123.72;;;5.64;94.19
24558;BME280;12726;49.148;8.582;2023-02-02T01:35:10;101107.69;;;5.64;94.27
24558;BME280;12726;49.148;8.582;2023-02-02T01:37:55;101126.41;;;5.64;94.09
24558;BME280;12726;49.148;8.582;2023-02-02T01:40:44;101120.38;;;5.62;93.89
24558;BME280;12726;49.148;8.582;2023-02-02T01:43:48;101100.03;;;5.61;93.81
24558;BME280;12726;49.148;8.582;2023-02-02T01:46:36;101098.16;;;5.62;94.10
24558;BME280;12726;49.148;8.582;2023-02-02T01:49:23;101106.19;;;5.62;94.53
24558;BME280;12726;49.148;8.582;2023-02-02T01:52:09;101113.53;;;5.60;94.85
24558;BME280;12726;49.148;8.582;2023-02-02T01:54:59;101107.38;;;5.59;94.88
24558;BME280;12726;49.148;8.582;2023-02-02T01:57:52;101113.53;;;5.60;95.24
24558;BME280;12726;49.148;8.582;2023-02-02T02:00:41;101097.38;;;5.61;95.66
24558;BME280;12726;49.148;8.582;2023-02-02T02:03:30;101105.53;;;5.60;95.84
24558;BME280;12726;49.148;8.582;2023-02-02T02:06:19;101089.81;;;5.57;96.30
24558;BME280;12726;49.148;8.582;2023-02-02T02:09:05;101095.69;;;5.60;96.00
24558;BME280;12726;49.148;8.582;2023-02-02T02:11:52;101097.69;;;5.58;95.91
24558;BME280;12726;49.148;8.582;2023-02-02T02:14:37;101099.00;;;5.62;95.74
24558;BME280;12726;49.148;8.582;2023-02-02T02:17:51;101100.53;;;5.65;95.91
24558;BME280;12726;49.148;8.582;2023-02-02T02:20:57;101114.56;;;5.67;95.46
24558;BME280;12726;49.148;8.582;2023-02-02T02:34:50;101113.25;;;5.79;94.76
24558;BME280;12726;49.148;8.582;2023-02-02T02:37:41;101107.59;;;5.82;94.46
24558;BME280;12726;49.148;8.582;2023-02-02T02:40:33;101122.16;;;5.87;94.13
24558;BME280;12726;49.148;8.582;2023-02-02T02:43:24;101117.31;;;5.91;93.96
24558;BME280;12726;49.148;8.582;2023-02-02T02:46:12;101110.13;;;5.92;93.71
24558;BME280;12726;49.148;8.582;2023-02-02T02:48:58;101116.16;;;5.94;93.65
24558;BME280;12726;49.148;8.582;2023-02-02T02:51:47;101115.31;;;5.93;93.87
24558;BME280;12726;49.148;8.582;2023-02-02T02:54:35;101111.31;;;5.89;93.56
24558;BME280;12726;49.148;8.582;2023-02-02T02:57:43;101122.81;;;5.98;93.65
24558;BME280;12726;49.148;8.582;2023-02-02T03:00:58;101094.09;;;6.00;93.14
24558;BME280;12726;49.148;8.582;2023-02-02T03:03:57;101116.47;;;5.99;93.09
24558;BME280;12726;49.148;8.582;2023-02-02T03:06:56;101111.81;;;6.01;93.26
24558;BME280;12726;49.148;8.582;2023-02-02T03:09:43;101109.28;;;5.99;93.38
24558;BME280;12726;49.148;8.582;2023-02-02T03:12:29;101119.16;;;5.99;93.31
24558;BME280;12726;49.148;8.582;2023-02-02T03:15:16;101113.50;;;6.02;93.18
24558;BME280;12726;49.148;8.582;2023-02-02T03:18:01;101114.97;;;6.04;93.07
24558;BME280;12726;49.148;8.582;2023-02-02T03:20:47;101109.13;;;6.01;93.36
24558;BME280;12726;49.148;8.582;2023-02-02T03:23:34;101114.16;;;6.04;93.41
24558;BME280;12726;49.148;8.582;2023-02-02T03:26:19;101120.50;;;6.03;93.61
24558;BME280;12726;49.148;8.582;2023-02-02T03:29:05;101120.16;;;6.06;93.54
24558;BME280;12726;49.148;8.582;2023-02-02T03:31:50;101105.78;;;6.07;93.45
24558;BME280;12726;49.148;8.582;2023-02-02T03:34:36;101110.66;;;6.03;93.69
24558;BME280;12726;49.148;8.582;2023-02-02T03:37:21;101111.13;;;5.99;93.89
24558;BME280;12726;49.148;8.582;2023-02-02T03:40:09;101121.34;;;6.03;94.10
24558;BME280;12726;49.148;8.582;2023-02-02T03:42:55;101120.50;;;6.03;94.14
24558;BME280;12726;49.148;8.582;2023-02-02T03:45:40;101123.84;;;5.97;94.68
24558;BME280;12726;49.148;8.582;2023-02-02T03:48:26;101120.97;;;5.90;95.34
24558;BME280;12726;49.148;8.582;2023-02-02T03:51:13;101138.31;;;5.86;95.75
24558;BME280;12726;49.148;8.582;2023-02-02T03:53:59;101136.63;;;5.85;95.93
24558;BME280;12726;49.148;8.582;2023-02-02T03:56:46;101133.28;;;5.83;96.48
24558;BME280;12726;49.148;8.582;2023-02-02T03:59:31;101135.47;;;5.79;96.65
24558;BME280;12726;49.148;8.582;2023-02-02T04:02:17;101137.59;;;5.76;96.88
24558;BME280;12726;49.148;8.582;2023-02-02T04:05:02;101136.81;;;5.75;97.15
24558;BME280;12726;49.148;8.582;2023-02-02T04:07:48;101131.28;;;5.77;97.31
24558;BME280;12726;49.148;8.582;2023-02-02T04:10:33;101133.94;;;5.77;97.38
24558;BME280;12726;49.148;8.582;2023-02-02T04:13:20;101132.94;;;5.78;97.42
24558;BME280;12726;49.148;8.582;2023-02-02T04:16:05;101136.81;;;5.75;97.48
24558;BME280;12726;49.148;8.582;2023-02-02T04:18:50;101139.47;;;5.75;97.66
24558;BME280;12726;49.148;8.582;2023-02-02T04:21:36;101135.47;;;5.79;97.36
24558;BME280;12726;49.148;8.582;2023-02-02T04:24:21;101143.78;;;5.76;97.43
24558;BME280;12726;49.148;8.582;2023-02-02T04:27:06;101132.09;;;5.77;97.52
24558;BME280;12726;49.148;8.582;2023-02-02T04:29:53;101142.16;;;5.75;97.64
24558;BME280;12726;49.148;8.582;2023-02-02T04:32:38;101132.78;;;5.79;97.26
24558;BME280;12726;49.148;8.582;2023-02-02T04:35:24;101155.50;;;5.83;97.21
24558;BME280;12726;49.148;8.582;2023-02-02T04:38:10;101153.66;;;5.84;97.23
24558;BME280;12726;49.148;8.582;2023-02-02T04:40:55;101157.69;;;5.80;97.11
24558;BME280;12726;49.148;8.582;2023-02-02T04:43:40;101175.03;;;5.84;97.10
24558;BME280;12726;49.148;8.582;2023-02-02T04:46:27;101169.03;;;5.82;97.04
24558;BME280;12726;49.148;8.582;2023-02-02T04:49:12;101167.59;;;5.87;96.75
24558;BME280;12726;49.148;8.582;2023-02-02T04:51:58;101168.91;;;5.92;96.18
24558;BME280;12726;49.148;8.582;2023-02-02T04:54:43;101181.91;;;5.86;96.67
24558;BME280;12726;49.148;8.582;2023-02-02T04:57:29;101169.59;;;5.94;96.13
24558;BME280;12726;49.148;8.582;2023-02-02T05:00:17;101178.28;;;5.96;95.90
24558;BME280;12726;49.148;8.582;2023-02-02T05:03:04;101182.47;;;5.98;95.80
24558;BME280;12726;49.148;8.582;2023-02-02T05:05:49;101180.44;;;5.92;95.93
24558;BME280;12726;49.148;8.582;2023-02-02T05:08:35;101180.59;;;5.90;96.18
24558;BME280;12726;49.148;8.582;2023-02-02T05:11:22;101191.69;;;6.04;95.38
24558;BME280;12726;49.148;8.582;2023-02-02T05:14:07;101191.69;;;6.04;95.05
24558;BME280;12726;49.148;8.582;2023-02-02T05:16:53;101196.19;;;6.03;95.21
24558;BME280;12726;49.148;8.582;2023-02-02T05:19:40;101189.50;;;6.07;95.04
24558;BME280;12726;49.148;8.582;2023-02-02T05:22:25;101201.19;;;6.06;94.84
24558;BME280;12726;49.148;8.582;2023-02-02T05:25:11;101195.19;;;6.12;94.70
24558;BME280;12726;49.148;8.582;2023-02-02T05:27:59;101192.88;;;6.17;94.16
24558;BME280;12726;49.148;8.582;2023-02-02T05:30:44;101194.38;;;6.20;94.01
24558;BME280;12726;49.148;8.582;2023-02-02T05:33:29;101193.69;;;6.10;94.54
24558;BME280;12726;49.148;8.582;2023-02-02T05:36:16;101193.88;;;6.16;93.98
24558;BME280;12726;49.148;8.582;2023-02-02T05:39:01;101195.03;;;6.22;94.03
24558;BME280;12726;49.148;8.582;2023-02-02T05:41:48;101191.88;;;6.26;93.63
24558;BME280;12726;49.148;8.582;2023-02-02T05:44:33;101189.03;;;6.28;93.69
24558;BME280;12726;49.148;8.582;2023-02-02T05:47:19;101191.03;;;6.34;93.16
24558;BME280;12726;49.148;8.582;2023-02-02T05:50:05;101189.03;;;6.36;92.85
24558;BME280;12726;49.148;8.582;2023-02-02T05:52:51;101202.41;;;6.36;92.62
24558;BME280;12726;49.148;8.582;2023-02-02T05:55:37;101185.53;;;6.36;92.99
24558;BME280;12726;49.148;8.582;2023-02-02T05:58:22;101190.72;;;6.29;93.28
24558;BME280;12726;49.148;8.582;2023-02-02T06:01:07;101196.72;;;6.31;92.94
24558;BME280;12726;49.148;8.582;2023-02-02T06:03:53;101202.91;;;6.32;93.36
24558;BME280;12726;49.148;8.582;2023-02-02T06:06:39;101209.44;;;6.37;92.84
24558;BME280;12726;49.148;8.582;2023-02-02T06:09:26;101202.59;;;6.43;92.52
24558;BME280;12726;49.148;8.582;2023-02-02T06:12:11;101212.44;;;6.42;92.70
24558;BME280;12726;49.148;8.582;2023-02-02T06:14:57;101217.63;;;6.44;92.57
24558;BME280;12726;49.148;8.582;2023-02-02T06:17:42;101215.28;;;6.49;92.41
24558;BME280;12726;49.148;8.582;2023-02-02T06:20:28;101215.81;;;6.44;92.21
24558;BME280;12726;49.148;8.582;2023-02-02T06:23:13;101213.13;;;6.44;92.46
24558;BME280;12726;49.148;8.582;2023-02-02T06:26:01;101210.94;;;6.48;92.17
24558;BME280;12726;49.148;8.582;2023-02-02T06:28:48;101214.44;;;6.48;92.17
24558;BME280;12726;49.148;8.582;2023-02-02T06:31:33;101213.44;;;6.41;92.34
24558;BME280;12726;49.148;8.582;2023-02-02T06:34:19;101220.31;;;6.44;92.46
24558;BME280;12726;49.148;8.582;2023-02-02T06:37:04;101232.19;;;6.49;92.13
24558;BME280;12726;49.148;8.582;2023-02-02T06:39:49;101220.63;;;6.49;91.84
24558;BME280;12726;49.148;8.582;2023-02-02T06:42:36;101208.09;;;6.49;91.80
24558;BME280;12726;49.148;8.582;2023-02-02T06:45:21;101206.94;;;6.52;91.94
24558;BME280;12726;49.148;8.582;2023-02-02T06:48:07;101211.94;;;6.55;91.91
24558;BME280;12726;49.148;8.582;2023-02-02T06:50:57;101212.78;;;6.55;91.88
24558;BME280;12726;49.148;8.582;2023-02-02T06:53:43;101205.09;;;6.52;92.03
24558;BME280;12726;49.148;8.582;2023-02-02T06:56:31;101213.28;;;6.51;92.08
24558;BME280;12726;49.148;8.582;2023-02-02T06:59:18;101214.63;;;6.47;92.54
24558;BME280;12726;49.148;8.582;2023-02-02T07:02:03;101218.97;;;6.48;92.49
24558;BME280;12726;49.148;8.582;2023-02-02T07:04:50;101216.13;;;6.49;92.69
24558;BME280;12726;49.148;8.582;2023-02-02T07:07:35;101212.63;;;6.49;92.59
24558;BME280;12726;49.148;8.582;2023-02-02T07:10:20;101221.63;;;6.48;93.05
24558;BME280;12726;49.148;8.582;2023-02-02T07:13:06;101211.94;;;6.47;93.26
24558;BME280;12726;49.148;8.582;2023-02-02T07:15:52;101237.03;;;6.46;93.03
24558;BME280;12726;49.148;8.582;2023-02-02T07:18:43;101231.84;;;6.44;93.67
24558;BME280;12726;49.148;8.582;2023-02-02T07:21:28;101225.31;;;6.47;93.67
24558;BME280;12726;49.148;8.582;2023-02-02T07:24:18;101228.50;;;6.50;93.42
24558;BME280;12726;49.148;8.582;2023-02-02T07:27:03;101235.19;;;6.46;93.98
24558;BME280;12726;49.148;8.582;2023-02-02T07:29:48;101241.88;;;6.50;93.87
24558;BME280;12726;49.148;8.582;2023-02-02T07:32:35;101227.00;;;6.48;94.06
24558;BME280;12726;49.148;8.582;2023-02-02T07:35:23;101217.28;;;6.47;93.96
24558;BME280;12726;49.148;8.582;2023-02-02T07:38:09;101223.66;;;6.46;94.12
24558;BME280;12726;49.148;8.582;2023-02-02T07:40:54;101228.19;;;6.45;94.07
24558;BME280;12726;49.148;8.582;2023-02-02T07:43:40;101228.34;;;6.44;94.17
24558;BME280;12726;49.148;8.582;2023-02-02T07:46:25;101249.22;;;6.40;94.37
24558;BME280;12726;49.148;8.582;2023-02-02T07:49:14;101244.38;;;6.44;94.50
24558;BME280;12726;49.148;8.582;2023-02-02T07:51:59;101251.41;;;6.45;94.46
24558;BME280;12726;49.148;8.582;2023-02-02T07:54:45;101233.19;;;6.32;94.55
24558;BME280;12726;49.148;8.582;2023-02-02T07:57:30;101248.56;;;6.38;94.90
24558;BME280;12726;49.148;8.582;2023-02-02T08:00:17;101265.59;;;6.37;94.81
24558;BME280;12726;49.148;8.582;2023-02-02T08:03:05;101261.56;;;6.33;94.92
24558;BME280;12726;49.148;8.582;2023-02-02T08:05:52;101259.56;;;6.35;95.31
24558;BME280;12726;49.148;8.582;2023-02-02T08:08:37;101273.78;;;6.36;95.09
24558;BME280;12726;49.148;8.582;2023-02-02T08:11:23;101257.91;;;6.42;94.47
24558;BME280;12726;49.148;8.582;2023-02-02T08:14:11;101274.31;;;6.39;94.60
24558;BME280;12726;49.148;8.582;2023-02-02T08:16:56;101272.13;;;6.43;94.22
24558;BME280;12726;49.148;8.582;2023-02-02T08:19:42;101258.78;;;6.51;93.63
24558;BME280;12726;49.148;8.582;2023-02-02T08:22:28;101263.28;;;6.50;93.21
24558;BME280;12726;49.148;8.582;2023-02-02T08:25:13;101257.09;;;6.58;92.98
24558;BME280;12726;49.148;8.582;2023-02-02T08:27:59;101272.00;;;6.60;92.69
24558;BME280;12726;49.148;8.582;2023-02-02T08:30:46;101275.47;;;6.61;92.68
24558;BME280;12726;49.148;8.582;2023-02-02T08:33:31;101284.72;;;6.66;92.09
24558;BME280;12726;49.148;8.582;2023-02-02T08:36:18;101302.59;;;6.58;92.56
24558;BME280;12726;49.148;8.582;2023-02-02T08:39:08;101293.41;;;6.60;92.47
24558;BME280;12726;49.148;8.582;2023-02-02T08:41:54;101298.41;;;6.63;92.42
24558;BME280;12726;49.148;8.582;2023-02-02T08:44:40;101291.06;;;6.65;92.10
24558;BME280;12726;49.148;8.582;2023-02-02T08:47:27;101280.19;;;6.67;91.86
24558;BME280;12726;49.148;8.582;2023-02-02T08:50:13;101288.88;;;6.77;91.50
24558;BME280;12726;49.148;8.582;2023-02-02T08:53:01;101288.41;;;6.74;91.82
24558;BME280;12726;49.148;8.582;2023-02-02T08:55:56;101292.56;;;6.84;91.15
24558;BME280;12726;49.148;8.582;2023-02-02T08:58:44;101298.09;;;6.83;91.28
24558;BME280;12726;49.148;8.582;2023-02-02T09:01:30;101294.91;;;6.79;91.46
24558;BME280;12726;49.148;8.582;2023-02-02T09:04:16;101302.28;;;6.77;91.61
24558;BME280;12726;49.148;8.582;2023-02-02T09:07:02;101310.28;;;6.77;91.52
24558;BME280;12726;49.148;8.582;2023-02-02T09:09:47;101313.31;;;6.82;91.46
24558;BME280;12726;49.148;8.582;2023-02-02T09:12:35;101312.00;;;6.86;91.45
24558;BME280;12726;49.148;8.582;2023-02-02T09:15:20;101313.50;;;6.81;91.75
24558;BME280;12726;49.148;8.582;2023-02-02T09:18:06;101316.19;;;6.89;91.76
24558;BME280;12726;49.148;8.582;2023-02-02T09:20:51;101323.53;;;6.95;91.12
24558;BME280;12726;49.148;8.582;2023-02-02T09:23:38;101323.72;;;7.01;90.99
24558;BME280;12726;49.148;8.582;2023-02-02T09:26:25;101311.66;;;6.97;90.73
24558;BME280;12726;49.148;8.582;2023-02-02T09:29:13;101318.19;;;7.03;90.60
24558;BME280;12726;49.148;8.582;2023-02-02T09:31:59;101325.72;;;6.99;91.00
24558;BME280;12726;49.148;8.582;2023-02-02T09:34:44;101325.88;;;7.06;90.51
24558;BME280;12726;49.148;8.582;2023-02-02T09:37:32;101328.53;;;6.98;90.37
24558;BME280;12726;49.148;8.582;2023-02-02T09:40:18;101331.91;;;7.00;90.53
24558;BME280;12726;49.148;8.582;2023-02-02T09:43:14;101332.75;;;7.08;90.32
24558;BME280;12726;49.148;8.582;2023-02-02T09:46:12;101333.75;;;6.99;90.71
24558;BME280;12726;49.148;8.582;2023-02-02T09:49:02;101328.91;;;7.03;90.16
24558;BME280;12726;49.148;8.582;2023-02-02T09:51:53;101335.59;;;7.07;90.39
24558;BME280;12726;49.148;8.582;2023-02-02T09:54:42;101325.72;;;7.07;90.69
24558;BME280;12726;49.148;8.582;2023-02-02T09:57:32;101329.06;;;7.10;90.23
24558;BME280;12726;49.148;8.582;2023-02-02T10:00:26;101345.97;;;7.10;90.49
24558;BME280;12726;49.148;8.582;2023-02-02T10:03:18;101334.75;;;7.15;90.23
24558;BME280;12726;49.148;8.582;2023-02-02T10:06:12;101339.28;;;7.14;90.62
24558;BME280;12726;49.148;8.582;2023-02-02T10:09:07;101343.63;;;7.15;90.73
24558;BME280;12726;49.148;8.582;2023-02-02T10:12:04;101338.09;;;7.08;91.38
24558;BME280;12726;49.148;8.582;2023-02-02T10:14:53;101336.06;;;7.11;91.50
24558;BME280;12726;49.148;8.582;2023-02-02T10:17:46;101332.75;;;7.08;91.73
24558;BME280;12726;49.148;8.582;2023-02-02T10:20:43;101330.25;;;7.15;91.75
24558;BME280;12726;49.148;8.582;2023-02-02T10:23:33;101341.09;;;7.14;90.92
24558;BME280;12726;49.148;8.582;2023-02-02T10:26:21;101331.56;;;7.19;91.19
24558;BME280;12726;49.148;8.582;2023-02-02T10:29:14;101339.28;;;7.30;90.22
24558;BME280;12726;49.148;8.582;2023-02-02T10:32:11;101344.63;;;7.38;90.15
24558;BME280;12726;49.148;8.582;2023-02-02T10:35:26;101339.75;;;7.42;89.43
24558;BME280;12726;49.148;8.582;2023-02-02T10:38:19;101334.22;;;7.43;89.65
24558;BME280;12726;49.148;8.582;2023-02-02T10:41:14;101342.75;;;7.39;89.04
24558;BME280;12726;49.148;8.582;2023-02-02T10:44:06;101339.75;;;7.42;89.25
24558;BME280;12726;49.148;8.582;2023-02-02T10:46:55;101340.75;;;7.41;88.55
24558;BME280;12726;49.148;8.582;2023-02-02T10:49:41;101328.88;;;7.43;88.91
24558;BME280;12726;49.148;8.582;2023-02-02T10:52:31;101330.72;;;7.43;88.70
24558;BME280;12726;49.148;8.582;2023-02-02T10:55:24;101327.03;;;7.44;88.74
24558;BME280;12726;49.148;8.582;2023-02-02T10:58:20;101342.59;;;7.40;88.05
24558;BME280;12726;49.148;8.582;2023-02-02T11:01:08;101334.06;;;7.37;88.72
24558;BME280;12726;49.148;8.582;2023-02-02T11:03:54;101332.72;;;7.33;89.24
24558;BME280;12726;49.148;8.582;2023-02-02T11:06:53;101346.94;;;7.33;89.48
24558;BME280;12726;49.148;8.582;2023-02-02T11:09:40;101347.13;;;7.32;89.01
24558;BME280;12726;49.148;8.582;2023-02-02T11:12:33;101355.81;;;7.26;90.37
24558;BME280;12726;49.148;8.582;2023-02-02T11:15:25;101353.66;;;7.29;90.26
24558;BME280;12726;49.148;8.582;2023-02-02T11:18:13;101367.91;;;7.22;90.32
24558;BME280;12726;49.148;8.582;2023-02-02T11:20:59;101363.88;;;7.26;90.54
24558;BME280;12726;49.148;8.582;2023-02-02T11:23:58;101365.06;;;7.31;89.87
24558;BME280;12726;49.148;8.582;2023-02-02T11:26:46;101368.56;;;7.24;89.56
24558;BME280;12726;49.148;8.582;2023-02-02T11:29:41;101367.53;;;7.33;89.40
24558;BME280;12726;49.148;8.582;2023-02-02T11:32:28;101363.03;;;7.41;87.42
24558;BME280;12726;49.148;8.582;2023-02-02T11:35:19;101358.00;;;7.46;87.41
24558;BME280;12726;49.148;8.582;2023-02-02T11:38:08;101357.34;;;7.53;86.73
24558;BME280;12726;49.148;8.582;2023-02-02T11:40:58;101354.81;;;7.51;87.10
24558;BME280;12726;49.148;8.582;2023-02-02T11:43:48;101342.13;;;7.45;86.94
24558;BME280;12726;49.148;8.582;2023-02-02T11:46:37;101356.16;;;7.47;86.51
24558;BME280;12726;49.148;8.582;2023-02-02T11:49:23;101357.00;;;7.47;86.60
24558;BME280;12726;49.148;8.582;2023-02-02T11:52:15;101355.16;;;7.48;86.79
24558;BME280;12726;49.148;8.582;2023-02-02T11:55:08;101350.63;;;7.57;85.47
24558;BME280;12726;49.148;8.582;2023-02-02T11:58:18;101339.59;;;7.52;85.52
24558;BME280;12726;49.148;8.582;2023-02-02T12:01:21;101335.38;;;7.49;85.11
24558;BME280;12726;49.148;8.582;2023-02-02T12:04:23;101335.88;;;7.61;84.30
24558;BME280;12726;49.148;8.582;2023-02-02T12:07:17;101336.69;;;7.61;83.17
24558;BME280;12726;49.148;8.582;2023-02-02T12:10:12;101343.25;;;7.67;83.13
24558;BME280;12726;49.148;8.582;2023-02-02T12:13:04;101339.03;;;7.72;82.23
24558;BME280;12726;49.148;8.582;2023-02-02T12:15:59;101331.16;;;7.79;81.61
24558;BME280;12726;49.148;8.582;2023-02-02T12:19:01;101340.19;;;7.86;81.60
24558;BME280;12726;49.148;8.582;2023-02-02T12:21:52;101332.13;;;7.86;81.63
24558;BME280;12726;49.148;8.582;2023-02-02T12:24:44;101335.97;;;7.83;80.55
24558;BME280;12726;49.148;8.582;2023-02-02T12:27:41;101339.16;;;7.87;81.64
24558;BME280;12726;49.148;8.582;2023-02-02T12:30:35;101337.97;;;7.90;80.98
24558;BME280;12726;49.148;8.582;2023-02-02T12:33:31;101325.59;;;7.89;81.20
24558;BME280;12726;49.148;8.582;2023-02-02T12:36:28;101332.44;;;7.99;80.52
24558;BME280;12726;49.148;8.582;2023-02-02T12:39:31;101326.38;;;7.97;80.85
24558;BME280;12726;49.148;8.582;2023-02-02T12:42:27;101341.63;;;8.05;80.76
24558;BME280;12726;49.148;8.582;2023-02-02T12:45:33;101311.94;;;8.06;80.81
24558;BME280;12726;49.148;8.582;2023-02-02T12:48:32;101313.72;;;8.22;80.13
24558;BME280;12726;49.148;8.582;2023-02-02T12:51:30;101305.72;;;8.14;80.49
24558;BME280;12726;49.148;8.582;2023-02-02T12:54:36;101316.91;;;8.17;80.45
24558;BME280;12726;49.148;8.582;2023-02-02T12:57:33;101303.66;;;8.24;80.21
24558;BME280;12726;49.148;8.582;2023-02-02T13:00:39;101317.59;;;8.19;80.53
24558;BME280;12726;49.148;8.582;2023-02-02T13:03:40;101310.53;;;8.18;80.88
24558;BME280;12726;49.148;8.582;2023-02-02T13:06:52;101305.38;;;8.17;80.36
24558;BME280;12726;49.148;8.582;2023-02-02T13:09:51;101297.66;;;8.14;80.64
24558;BME280;12726;49.148;8.582;2023-02-02T13:12:46;101302.38;;;8.12;80.81
24558;BME280;12726;49.148;8.582;2023-02-02T13:15:36;101317.81;;;8.10;81.14
24558;BME280;12726;49.148;8.582;2023-02-02T13:18:25;101315.13;;;8.10;81.05
24558;BME280;12726;49.148;8.582;2023-02-02T13:21:13;101322.97;;;8.11;81.49
24558;BME280;12726;49.148;8.582;2023-02-02T13:24:04;101318.31;;;8.05;81.29
24558;BME280;12726;49.148;8.582;2023-02-02T13:26:53;101330.88;;;8.05;81.27
24558;BME280;12726;49.148;8.582;2023-02-02T13:29:43;101322.34;;;8.09;81.72
24558;BME280;12726;49.148;8.582;2023-02-02T13:32:33;101335.78;;;8.01;81.65
24558;BME280;12726;49.148;8.582;2023-02-02T13:35:23;101328.72;;;8.00;82.40
24558;BME280;12726;49.148;8.582;2023-02-02T13:38:13;101330.88;;;8.05;81.16
24558;BME280;12726;49.148;8.582;2023-02-02T13:41:01;101347.97;;;8.04;81.62
24558;BME280;12726;49.148;8.582;2023-02-02T13:43:56;101340.63;;;7.98;81.56
24558;BME280;12726;49.148;8.582;2023-02-02T13:46:51;101345.50;;;8.02;82.58
24558;BME280;12726;49.148;8.582;2023-02-02T13:49:42;101347.69;;;7.91;84.64
24558;BME280;12726;49.148;8.582;2023-02-02T13:52:56;101362.78;;;7.83;85.88
24558;BME280;12726;49.148;8.582;2023-02-02T13:55:58;101347.09;;;7.72;86.62
24558;BME280;12726;49.148;8.582;2023-02-02T13:59:04;101361.50;;;7.63;87.72
24558;BME280;12726;49.148;8.582;2023-02-02T14:01:55;101357.50;;;7.59;87.97
24558;BME280;12726;49.148;8.582;2023-02-02T14:04:41;101359.50;;;7.57;88.32
24558;BME280;12726;49.148;8.582;2023-02-02T14:07:37;101365.69;;;7.58;88.45
24558;BME280;12726;49.148;8.582;2023-02-02T14:10:27;101368.69;;;7.55;88.33
24558;BME280;12726;49.148;8.582;2023-02-02T14:13:16;101369.06;;;7.52;88.45
24558;BME280;12726;49.148;8.582;2023-02-02T14:16:42;101370.06;;;7.51;88.21
24558;BME280;12726;49.148;8.582;2023-02-02T14:19:51;101371.06;;;7.50;87.77
24558;BME280;12726;49.148;8.582;2023-02-02T14:22:39;101379.44;;;7.46;87.91
24558;BME280;12726;49.148;8.582;2023-02-02T14:25:59;101378.25;;;7.49;87.73
24558;BME280;12726;49.148;8.582;2023-02-02T14:28:49;101378.09;;;7.42;87.59
24558;BME280;12726;49.148;8.582;2023-02-02T14:31:51;101381.94;;;7.48;86.85
24558;BME280;12726;49.148;8.582;2023-02-02T14:34:38;101382.09;;;7.46;86.70
24558;BME280;12726;49.148;8.582;2023-02-02T14:37:40;101377.44;;;7.48;nan
24558;BME280;12726;49.148;8.582;2023-02-02T14:40:32;101384.47;;;7.50;86.54
24558;BME280;12726;49.148;8.582;2023-02-02T14:43:29;101385.97;;;7.52;86.33
24558;BME280;12726;49.148;8.582;2023-02-02T14:46:37;101388.66;;;7.52;85.93
24558;BME280;12726;49.148;8.582;2023-02-02T14:49:26;101398.84;;;7.48;85.95
24558;BME280;12726;49.148;8.582;2023-02-02T14:52:20;101402.38;;;7.49;85.44
24558;BME280;12726;49.148;8.582;2023-02-02T14:55:16;101404.91;;;7.51;85.09
24558;BME280;12726;49.148;8.582;2023-02-02T14:58:03;101408.25;;;7.53;84.78
24558;BME280;12726;49.148;8.582;2023-02-02T15:00:54;101401.69;;;7.55;84.83
24558;BME280;12726;49.148;8.582;2023-02-02T15:03:49;101407.41;;;7.52;84.34
24558;BME280;12726;49.148;8.582;2023-02-02T15:06:39;101420.47;;;7.55;84.08
24558;BME280;12726;49.148;8.582;2023-02-02T15:09:38;101416.78;;;7.56;84.08